createdAt,value
2023-05-01T00:00:43.673Z,2.88
2023-05-01T00:03:19.192Z,2.65
2023-05-01T00:05:48.723Z,3.10
2023-05-01T00:08:17.216Z,2.47
2023-05-01T00:10:46.650Z,3.17
2023-05-01T00:13:15.029Z,3.30
2023-05-01T00:15:43.517Z,3.22
2023-05-01T00:18:11.798Z,3.42
2023-05-01T00:20:41.701Z,3.45
2023-05-01T00:23:09.994Z,3.92
2023-05-01T00:25:38.510Z,3.72
2023-05-01T00:28:07.699Z,3.88
2023-05-01T00:30:36.684Z,3.58
2023-05-01T00:33:04.992Z,4.25
2023-05-01T00:35:35.687Z,4.55
2023-05-01T00:38:05.783Z,4.25
2023-05-01T00:40:34.308Z,4.80
2023-05-01T00:43:02.501Z,4.22
2023-05-01T00:45:31.156Z,4.88
2023-05-01T00:47:59.452Z,4.72
2023-05-01T00:50:28.314Z,5.68
2023-05-01T00:52:57.152Z,4.65
2023-05-01T00:55:27.886Z,5.13
2023-05-01T00:57:57.465Z,4.40
2023-05-01T01:00:26.044Z,4.72
2023-05-01T01:02:54.482Z,5.30
2023-05-01T01:05:27.671Z,4.50
2023-05-01T01:08:05.126Z,5.57
2023-05-01T01:10:42.093Z,4.10
2023-05-01T01:13:19.384Z,4.07
2023-05-01T01:15:54.970Z,4.38
2023-05-01T01:18:32.503Z,3.65
2023-05-01T01:21:09.555Z,3.83
2023-05-01T01:24:14.011Z,4.22
2023-05-01T01:27:20.653Z,3.80
2023-05-01T01:30:02.758Z,3.75
2023-05-01T01:32:55.929Z,4.32
2023-05-01T01:35:28.073Z,3.95
2023-05-01T01:38:02.672Z,3.60
2023-05-01T01:40:38.159Z,3.55
2023-05-01T01:43:09.065Z,3.65
2023-05-01T01:45:41.266Z,3.33
2023-05-01T01:48:12.086Z,3.85
2023-05-01T01:50:43.448Z,3.60
2023-05-01T01:53:15.792Z,3.90
2023-05-01T01:55:46.028Z,3.20
2023-05-01T01:58:16.967Z,3.70
2023-05-01T02:00:46.674Z,4.15
2023-05-01T02:03:16.531Z,3.22
2023-05-01T02:05:48.061Z,3.53
2023-05-01T02:08:18.788Z,4.00
2023-05-01T02:10:49.252Z,3.72
2023-05-01T02:13:19.404Z,4.05
2023-05-01T02:15:49.915Z,3.92
2023-05-01T02:18:19.979Z,4.07
2023-05-01T02:20:50.615Z,3.65
2023-05-01T02:23:19.441Z,3.22
2023-05-01T02:25:49.235Z,3.47
2023-05-01T02:28:24.236Z,3.80
2023-05-01T02:30:52.684Z,3.35
2023-05-01T02:33:21.227Z,3.38
2023-05-01T02:35:50.775Z,3.92
2023-05-01T02:38:19.503Z,3.53
2023-05-01T02:40:53.586Z,3.72
2023-05-01T02:43:24.022Z,2.97
2023-05-01T02:45:54.650Z,4.20
2023-05-01T02:48:28.029Z,3.33
2023-05-01T02:50:58.375Z,3.55
2023-05-01T02:53:27.041Z,4.10
2023-05-01T02:55:55.625Z,4.07
2023-05-01T02:58:24.565Z,4.05
2023-05-01T03:00:52.868Z,4.15
2023-05-01T03:03:21.851Z,4.10
2023-05-01T03:05:50.168Z,4.72
2023-05-01T03:08:20.492Z,4.50
2023-05-01T03:10:50.292Z,4.53
2023-05-01T03:13:18.995Z,4.97
2023-05-01T03:15:47.314Z,4.47
2023-05-01T03:18:15.947Z,4.55
2023-05-01T03:20:53.460Z,4.47
2023-05-01T03:23:23.567Z,4.15
2023-05-01T03:25:52.037Z,4.10
2023-05-01T03:28:21.830Z,3.10
2023-05-01T03:30:51.515Z,5.38
2023-05-01T03:33:20.289Z,4.68
2023-05-01T03:35:49.220Z,3.47
2023-05-01T03:38:17.847Z,4.15
2023-05-01T03:40:47.481Z,4.93
2023-05-01T03:43:16.191Z,3.95
2023-05-01T03:45:44.971Z,4.38
2023-05-01T03:48:14.287Z,3.97
2023-05-01T03:50:42.513Z,3.80
2023-05-01T03:53:11.093Z,4.30
2023-05-01T03:55:40.071Z,4.68
2023-05-01T03:58:10.834Z,4.70
2023-05-01T04:00:39.260Z,4.75
2023-05-01T04:03:07.896Z,4.88
2023-05-01T04:05:36.611Z,5.53
2023-05-01T04:08:05.469Z,4.78
2023-05-01T04:10:33.858Z,5.20
2023-05-01T04:13:02.368Z,4.88
2023-05-01T04:15:32.518Z,4.93
2023-05-01T04:18:01.617Z,4.20
2023-05-01T04:20:29.911Z,4.75
2023-05-01T04:22:58.557Z,5.10
2023-05-01T04:25:27.443Z,4.40
2023-05-01T04:28:01.077Z,5.57
2023-05-01T04:30:30.915Z,4.82
2023-05-01T04:33:01.936Z,6.15
2023-05-01T04:35:30.266Z,5.97
2023-05-01T04:37:58.742Z,6.35
2023-05-01T04:40:26.937Z,6.75
2023-05-01T04:42:55.578Z,5.85
2023-05-01T04:45:24.088Z,6.72
2023-05-01T04:47:52.646Z,5.07
2023-05-01T04:50:22.448Z,6.70
2023-05-01T04:52:51.245Z,5.95
2023-05-01T04:55:19.746Z,5.53
2023-05-01T04:57:48.346Z,6.97
2023-05-01T05:00:19.112Z,5.70
2023-05-01T05:02:47.749Z,7.45
2023-05-01T05:05:16.255Z,8.18
2023-05-01T05:07:46.549Z,7.72
2023-05-01T05:10:15.208Z,6.25
2023-05-01T05:12:43.686Z,6.05
2023-05-01T05:15:12.465Z,6.88
2023-05-01T05:17:41.417Z,5.95
2023-05-01T05:20:10.471Z,6.68
2023-05-01T05:22:39.279Z,6.20
2023-05-01T05:25:09.953Z,6.30
2023-05-01T05:27:39.016Z,5.55
2023-05-01T05:30:08.629Z,6.45
2023-05-01T05:32:37.514Z,5.75
2023-05-01T05:35:07.215Z,5.63
2023-05-01T05:37:35.865Z,4.68
2023-05-01T05:40:04.426Z,5.57
2023-05-01T05:42:34.366Z,5.10
2023-05-01T05:45:02.704Z,6.25
2023-05-01T05:47:31.293Z,5.15
2023-05-01T05:49:59.653Z,6.15
2023-05-01T05:52:28.206Z,5.72
2023-05-01T05:54:56.446Z,6.13
2023-05-01T05:57:25.188Z,3.95
2023-05-01T05:59:55.101Z,4.93
2023-05-01T06:02:24.127Z,4.75
2023-05-01T06:04:52.388Z,4.78
2023-05-01T06:07:22.937Z,4.82
2023-05-01T06:09:51.326Z,4.53
2023-05-01T06:12:19.791Z,4.35
2023-05-01T06:14:48.470Z,4.57
2023-05-01T06:17:18.384Z,3.97
2023-05-01T06:19:46.964Z,3.75
2023-05-01T06:22:15.455Z,2.97
2023-05-01T06:24:43.700Z,3.03
2023-05-01T06:27:12.291Z,3.28
2023-05-01T06:29:40.771Z,4.30
2023-05-01T06:32:09.340Z,3.47
2023-05-01T06:34:39.029Z,3.35
2023-05-01T06:37:07.920Z,2.90
2023-05-01T06:39:36.398Z,3.20
2023-05-01T06:42:05.048Z,3.10
2023-05-01T06:44:33.390Z,2.60
2023-05-01T06:47:02.116Z,2.88
2023-05-01T06:49:30.482Z,2.15
2023-05-01T06:52:00.737Z,2.90
2023-05-01T06:54:29.142Z,2.53
2023-05-01T06:56:57.853Z,2.38
2023-05-01T06:59:26.399Z,2.45
2023-05-01T07:01:54.950Z,2.55
2023-05-01T07:04:23.941Z,2.45
2023-05-01T07:06:52.662Z,2.50
2023-05-01T07:09:22.681Z,2.33
2023-05-01T07:11:51.330Z,3.40
2023-05-01T07:14:19.592Z,2.17
2023-05-01T07:16:48.307Z,2.42
2023-05-01T07:19:16.723Z,2.67
2023-05-01T07:21:45.308Z,2.47
2023-05-01T07:24:13.685Z,1.90
2023-05-01T07:26:43.728Z,2.30
2023-05-01T07:29:13.452Z,2.60
2023-05-01T07:31:42.196Z,2.83
2023-05-01T07:34:13.422Z,2.47
2023-05-01T07:36:42.606Z,2.50
2023-05-01T07:39:10.957Z,2.08
2023-05-01T07:41:39.749Z,2.88
2023-05-01T07:44:09.596Z,1.90
2023-05-01T07:46:38.782Z,1.58
2023-05-01T07:49:07.072Z,1.98
2023-05-01T07:51:36.054Z,2.53
2023-05-01T07:54:05.067Z,2.42
2023-05-01T07:56:34.342Z,1.85
2023-05-01T07:59:02.533Z,2.22
2023-05-01T08:01:34.101Z,2.05
2023-05-01T08:04:02.608Z,2.05
2023-05-01T08:06:32.731Z,2.50
2023-05-01T08:09:01.021Z,1.80
2023-05-01T08:11:29.929Z,1.55
2023-05-01T08:13:58.268Z,2.20
2023-05-01T08:16:27.076Z,1.40
2023-05-01T08:18:56.824Z,1.25
2023-05-01T08:21:26.522Z,2.20
2023-05-01T08:23:56.905Z,1.95
2023-05-01T08:26:25.682Z,1.80
2023-05-01T08:28:54.198Z,1.73
2023-05-01T08:31:25.193Z,1.98
2023-05-01T08:33:53.707Z,1.65
2023-05-01T08:36:23.748Z,1.65
2023-05-01T08:38:52.018Z,1.88
2023-05-01T08:41:23.848Z,1.40
2023-05-01T08:43:52.286Z,1.70
2023-05-01T08:46:30.308Z,1.05
2023-05-01T08:48:59.836Z,1.20
2023-05-01T08:51:32.367Z,1.38
2023-05-01T08:54:03.095Z,1.95
2023-05-01T08:56:33.561Z,1.20
2023-05-01T08:59:05.276Z,1.98
2023-05-01T09:01:35.100Z,1.40
2023-05-01T09:04:18.544Z,1.30
2023-05-01T09:06:48.745Z,1.52
2023-05-01T09:09:17.139Z,1.00
2023-05-01T09:11:46.269Z,1.08
2023-05-01T09:14:14.579Z,1.60
2023-05-01T09:16:43.296Z,1.30
2023-05-01T09:19:11.694Z,1.33
2023-05-01T09:21:41.677Z,1.20
2023-05-01T09:24:11.338Z,0.93
2023-05-01T09:26:42.001Z,1.30
2023-05-01T09:29:10.352Z,1.17
2023-05-01T09:31:38.986Z,1.08
2023-05-01T09:34:08.448Z,1.30
2023-05-01T09:36:37.561Z,1.05
2023-05-01T09:39:06.443Z,1.42
2023-05-01T09:41:36.675Z,1.52
2023-05-01T09:44:05.228Z,1.90
2023-05-01T09:46:43.782Z,1.00
2023-05-01T09:49:12.310Z,1.40
2023-05-01T09:51:41.610Z,1.85
2023-05-01T09:54:19.755Z,1.17
2023-05-01T09:56:51.232Z,1.23
2023-05-01T09:59:21.742Z,0.93
2023-05-01T10:01:50.957Z,1.30
2023-05-01T10:04:30.284Z,1.02
2023-05-01T10:06:59.180Z,1.38
2023-05-01T10:09:32.414Z,0.88
2023-05-01T10:12:02.438Z,0.90
2023-05-01T10:14:33.800Z,1.00
2023-05-01T10:17:02.771Z,1.25
2023-05-01T10:19:31.463Z,1.10
2023-05-01T10:22:00.565Z,1.30
2023-05-01T10:24:28.918Z,1.10
2023-05-01T10:26:58.783Z,1.17
2023-05-01T10:29:31.007Z,1.38
2023-05-01T10:32:00.233Z,1.20
2023-05-01T10:34:29.309Z,1.63
2023-05-01T10:37:02.888Z,1.17
2023-05-01T10:39:32.673Z,1.00
2023-05-01T10:42:11.317Z,1.42
2023-05-01T10:44:42.364Z,1.50
2023-05-01T10:47:45.626Z,1.20
2023-05-01T10:50:16.088Z,1.35
2023-05-01T10:53:19.306Z,1.40
2023-05-01T10:55:49.757Z,1.40
2023-05-01T10:58:59.001Z,1.13
2023-05-01T11:01:33.250Z,1.55
2023-05-01T11:04:04.662Z,1.55
2023-05-01T11:06:33.501Z,0.80
2023-05-01T11:09:02.570Z,0.98
2023-05-01T11:11:51.670Z,1.35
2023-05-01T11:14:20.391Z,1.52
2023-05-01T11:16:50.591Z,1.60
2023-05-01T11:19:50.859Z,1.25
2023-05-01T11:22:19.568Z,1.63
2023-05-01T11:24:48.709Z,1.15
2023-05-01T11:27:18.418Z,1.20
2023-05-01T11:29:48.722Z,1.33
2023-05-01T11:32:26.455Z,1.42
2023-05-01T11:34:55.547Z,1.38
2023-05-01T11:37:42.365Z,1.20
2023-05-01T11:40:22.096Z,1.67
2023-05-01T11:42:51.395Z,1.20
2023-05-01T11:45:20.913Z,1.40
2023-05-01T11:47:51.317Z,1.35
2023-05-01T11:50:21.553Z,1.50
2023-05-01T11:52:53.761Z,1.55
2023-05-01T11:55:31.806Z,1.13
2023-05-01T11:58:00.444Z,1.38
2023-05-01T12:00:30.690Z,1.38
2023-05-01T12:03:02.288Z,1.80
2023-05-01T12:05:32.703Z,1.75
2023-05-01T12:08:12.355Z,1.50
2023-05-01T12:10:43.945Z,1.25
2023-05-01T12:13:14.108Z,1.35
2023-05-01T12:15:45.245Z,1.25
2023-05-01T12:18:15.949Z,1.67
2023-05-01T12:20:47.465Z,1.35
2023-05-01T12:23:17.183Z,1.27
2023-05-01T12:25:46.844Z,1.77
2023-05-01T12:28:16.972Z,1.65
2023-05-01T12:30:46.687Z,1.80
2023-05-01T12:33:18.165Z,1.23
2023-05-01T12:35:48.901Z,1.60
2023-05-01T12:38:18.510Z,1.83
2023-05-01T12:40:55.037Z,1.25
2023-05-01T12:43:30.996Z,1.35
2023-05-01T12:45:59.838Z,1.48
2023-05-01T12:48:29.675Z,1.80
2023-05-01T12:50:58.775Z,1.45
2023-05-01T12:53:28.525Z,1.30
2023-05-01T12:55:59.188Z,1.38
2023-05-01T12:58:37.218Z,1.38
2023-05-01T13:01:23.050Z,1.67
2023-05-01T13:03:52.926Z,1.92
2023-05-01T13:06:21.775Z,1.92
2023-05-01T13:08:51.057Z,1.80
2023-05-01T13:11:19.676Z,1.60
2023-05-01T13:13:48.448Z,1.42
2023-05-01T13:16:18.034Z,1.50
2023-05-01T13:18:48.375Z,1.25
2023-05-01T13:21:21.016Z,1.63
2023-05-01T13:23:57.295Z,1.42
2023-05-01T13:26:31.506Z,1.58
2023-05-01T13:29:02.109Z,2.08
2023-05-01T13:31:31.298Z,1.90
2023-05-01T13:34:00.975Z,1.52
2023-05-01T13:36:34.337Z,1.80
2023-05-01T13:39:03.195Z,1.85
2023-05-01T13:41:31.809Z,1.40
2023-05-01T13:44:00.297Z,1.67
2023-05-01T13:46:30.614Z,1.73
2023-05-01T13:49:08.957Z,1.85
2023-05-01T13:51:43.650Z,1.50
2023-05-01T13:54:12.705Z,1.60
2023-05-01T13:56:42.527Z,2.28
2023-05-01T13:59:11.497Z,1.83
2023-05-01T14:01:45.941Z,1.67
2023-05-01T14:04:18.294Z,1.67
2023-05-01T14:06:49.980Z,2.28
2023-05-01T14:09:19.658Z,1.65
2023-05-01T14:11:49.637Z,1.75
2023-05-01T14:14:19.334Z,2.22
2023-05-01T14:16:52.917Z,1.80
2023-05-01T14:19:21.459Z,2.25
2023-05-01T14:21:51.848Z,1.58
2023-05-01T14:24:20.949Z,1.95
2023-05-01T14:26:50.544Z,1.70
2023-05-01T14:29:24.960Z,1.80
2023-05-01T14:31:55.417Z,1.30
2023-05-01T14:34:24.388Z,1.73
2023-05-01T14:36:56.391Z,1.60
2023-05-01T14:39:24.977Z,1.42
2023-05-01T14:41:54.523Z,2.15
2023-05-01T14:44:26.634Z,1.77
2023-05-01T14:46:56.394Z,1.50
2023-05-01T14:49:26.590Z,2.10
2023-05-01T14:51:56.784Z,1.67
2023-05-01T14:54:25.068Z,1.65
2023-05-01T14:56:54.000Z,2.00
2023-05-01T14:59:24.521Z,2.40
2023-05-01T15:01:53.375Z,2.38
2023-05-01T15:04:22.369Z,2.05
2023-05-01T15:06:51.254Z,2.20
2023-05-01T15:09:21.115Z,2.03
2023-05-01T15:11:49.944Z,2.40
2023-05-01T15:14:18.327Z,1.70
2023-05-01T15:16:47.153Z,1.98
2023-05-01T15:19:15.666Z,1.75
2023-05-01T15:21:44.193Z,2.00
2023-05-01T15:24:12.628Z,1.80
2023-05-01T15:26:42.718Z,1.65
2023-05-01T15:29:10.985Z,1.55
2023-05-01T15:31:39.625Z,2.13
2023-05-01T15:34:08.319Z,1.80
2023-05-01T15:36:39.787Z,1.75
2023-05-01T15:39:11.875Z,1.88
2023-05-01T15:41:42.633Z,1.63
2023-05-01T15:44:11.563Z,1.90
2023-05-01T15:46:40.256Z,1.65
2023-05-01T15:49:09.790Z,2.03
2023-05-01T15:51:38.473Z,1.75
2023-05-01T15:54:06.947Z,1.67
2023-05-01T15:56:37.667Z,2.10
2023-05-01T15:59:08.635Z,1.85
2023-05-01T16:01:37.287Z,1.35
2023-05-01T16:04:05.800Z,1.98
2023-05-01T16:06:36.369Z,2.00
2023-05-01T16:09:05.382Z,1.20
2023-05-01T16:11:34.299Z,2.10
2023-05-01T16:14:02.647Z,1.35
2023-05-01T16:16:34.472Z,1.55
2023-05-01T16:19:02.800Z,1.13
2023-05-01T16:21:31.693Z,1.63
2023-05-01T16:24:02.846Z,1.67
2023-05-01T16:26:31.604Z,1.65
2023-05-01T16:29:01.486Z,1.48
2023-05-01T16:31:35.808Z,1.58
2023-05-01T16:34:06.491Z,1.70
2023-05-01T16:36:36.820Z,1.80
2023-05-01T16:39:05.608Z,1.40
2023-05-01T16:41:43.310Z,1.52
2023-05-01T16:44:11.990Z,1.10
2023-05-01T16:46:43.028Z,1.60
2023-05-01T16:49:13.757Z,1.70
2023-05-01T16:51:42.895Z,1.42
2023-05-01T16:54:11.551Z,1.67
2023-05-01T16:56:40.615Z,1.50
2023-05-01T16:59:09.094Z,1.85
2023-05-01T17:01:37.823Z,1.92
2023-05-01T17:04:08.226Z,1.55
2023-05-01T17:06:37.185Z,1.67
2023-05-01T17:09:06.440Z,1.45
2023-05-01T17:11:35.157Z,1.92
2023-05-01T17:14:03.689Z,1.15
2023-05-01T17:16:33.531Z,1.40
2023-05-01T17:19:05.942Z,1.27
2023-05-01T17:21:35.985Z,1.88
2023-05-01T17:24:04.712Z,1.77
2023-05-01T17:26:33.248Z,1.10
2023-05-01T17:29:03.173Z,1.75
2023-05-01T17:31:32.005Z,1.92
2023-05-01T17:34:00.315Z,1.63
2023-05-01T17:36:29.185Z,1.17
2023-05-01T17:39:00.213Z,1.00
2023-05-01T17:41:29.024Z,1.65
2023-05-01T17:43:57.519Z,1.80
2023-05-01T17:46:26.757Z,1.42
2023-05-01T17:48:55.608Z,1.35
2023-05-01T17:51:24.430Z,1.85
2023-05-01T17:53:53.123Z,2.30
2023-05-01T17:56:23.113Z,1.25
2023-05-01T17:58:51.446Z,1.65
2023-05-01T18:01:20.419Z,1.33
2023-05-01T18:03:49.627Z,1.83
2023-05-01T18:06:18.708Z,2.17
2023-05-01T18:08:48.072Z,1.70
2023-05-01T18:11:16.706Z,1.70
2023-05-01T18:13:48.146Z,1.88
2023-05-01T18:16:17.432Z,1.55
2023-05-01T18:18:47.041Z,1.33
2023-05-01T18:21:15.947Z,1.75
2023-05-01T18:23:45.482Z,1.50
2023-05-01T18:26:15.243Z,1.70
2023-05-01T18:28:43.777Z,1.75
2023-05-01T18:31:27.739Z,1.30
2023-05-01T18:33:56.244Z,1.80
2023-05-01T18:36:24.757Z,1.77
2023-05-01T18:38:53.397Z,1.52
2023-05-01T18:41:22.843Z,1.90
2023-05-01T18:43:54.223Z,1.45
2023-05-01T18:46:25.610Z,1.23
2023-05-01T18:48:53.878Z,1.60
2023-05-01T18:51:22.552Z,1.65
2023-05-01T18:53:50.854Z,2.30
2023-05-01T18:56:19.546Z,1.65
2023-05-01T18:58:48.030Z,1.65
2023-05-01T19:01:16.729Z,2.05
2023-05-01T19:03:46.308Z,1.60
2023-05-01T19:06:14.934Z,2.17
2023-05-01T19:08:43.151Z,1.90
2023-05-01T19:11:11.712Z,2.10
2023-05-01T19:13:40.040Z,1.85
2023-05-01T19:16:08.781Z,1.80
2023-05-01T19:18:38.244Z,2.05
2023-05-01T19:21:08.110Z,1.40
2023-05-01T19:23:37.594Z,1.80
2023-05-01T19:26:07.922Z,1.88
2023-05-01T19:28:38.498Z,1.65
2023-05-01T19:31:07.826Z,1.65
2023-05-01T19:33:36.283Z,2.25
2023-05-01T19:36:05.255Z,1.65
2023-05-01T19:38:34.849Z,1.90
2023-05-01T19:41:03.419Z,2.15
2023-05-01T19:43:31.735Z,2.13
2023-05-01T19:46:00.224Z,1.60
2023-05-01T19:48:28.466Z,1.73
2023-05-01T19:50:56.952Z,1.80
2023-05-01T19:53:25.251Z,1.77
2023-05-01T19:55:55.043Z,1.90
2023-05-01T19:58:23.331Z,2.15
2023-05-01T20:00:51.856Z,2.10
2023-05-01T20:03:20.189Z,2.05
2023-05-01T20:05:48.609Z,2.47
2023-05-01T20:08:16.810Z,2.10
2023-05-01T20:10:45.383Z,1.67
2023-05-01T20:13:15.468Z,1.85
2023-05-01T20:15:44.008Z,2.03
2023-05-01T20:18:13.288Z,2.65
2023-05-01T20:20:41.942Z,1.92
2023-05-01T20:23:11.672Z,2.63
2023-05-01T20:25:40.215Z,1.98
2023-05-01T20:28:09.253Z,2.50
2023-05-01T20:30:40.610Z,2.50
2023-05-01T20:33:09.011Z,2.97
2023-05-01T20:35:37.892Z,2.50
2023-05-01T20:38:06.256Z,2.63
2023-05-01T20:40:35.600Z,2.85
2023-05-01T20:43:03.907Z,2.65
2023-05-01T20:45:32.390Z,2.80
2023-05-01T20:48:02.925Z,2.30
2023-05-01T20:50:31.787Z,2.60
2023-05-01T20:53:00.136Z,2.53
2023-05-01T20:55:30.019Z,2.17
2023-05-01T20:57:58.694Z,2.50
2023-05-01T21:00:27.347Z,2.78
2023-05-01T21:02:58.043Z,3.00
2023-05-01T21:05:28.798Z,2.57
2023-05-01T21:07:58.725Z,2.90
2023-05-01T21:10:27.324Z,2.42
2023-05-01T21:12:56.353Z,2.60
2023-05-01T21:15:25.011Z,2.50
2023-05-01T21:17:53.399Z,2.50
2023-05-01T21:20:32.480Z,2.50
2023-05-01T21:23:01.593Z,2.67
2023-05-01T21:25:32.248Z,2.78
2023-05-01T21:28:02.135Z,3.47
2023-05-01T21:30:33.401Z,3.03
2023-05-01T21:33:02.639Z,2.42
2023-05-01T21:35:32.960Z,2.90
2023-05-01T21:38:01.589Z,2.53
2023-05-01T21:40:30.600Z,2.13
2023-05-01T21:42:58.864Z,3.08
2023-05-01T21:45:28.073Z,3.13
2023-05-01T21:47:56.395Z,3.20
2023-05-01T21:50:25.032Z,3.00
2023-05-01T21:52:54.648Z,2.72
2023-05-01T21:55:26.377Z,3.78
2023-05-01T21:57:54.749Z,3.13
2023-05-01T22:00:23.431Z,3.05
2023-05-01T22:02:52.655Z,2.90
2023-05-01T22:05:23.062Z,3.03
2023-05-01T22:07:52.476Z,3.20
2023-05-01T22:10:22.428Z,2.97
2023-05-01T22:12:50.723Z,3.72
2023-05-01T22:15:19.474Z,3.25
2023-05-01T22:17:47.922Z,3.22
2023-05-01T22:20:16.538Z,3.05
2023-05-01T22:22:44.770Z,3.45
2023-05-01T22:25:13.512Z,3.40
2023-05-01T22:27:43.074Z,3.53
2023-05-01T22:30:12.761Z,3.25
2023-05-01T22:32:40.979Z,3.50
2023-05-01T22:35:10.120Z,3.22
2023-05-01T22:37:38.307Z,4.10
2023-05-01T22:40:08.356Z,3.55
2023-05-01T22:42:36.625Z,4.85
2023-05-01T22:45:08.579Z,4.00
2023-05-01T22:47:36.904Z,5.15
2023-05-01T22:50:05.967Z,5.10
2023-05-01T22:52:34.240Z,4.50
2023-05-01T22:55:02.818Z,4.50
2023-05-01T22:57:31.292Z,3.90
2023-05-01T23:00:00.236Z,4.47
2023-05-01T23:02:30.420Z,4.50
2023-05-01T23:04:59.177Z,4.30
2023-05-01T23:07:27.334Z,3.70
2023-05-01T23:09:57.162Z,4.68
2023-05-01T23:12:25.876Z,3.58
2023-05-01T23:14:56.084Z,4.28
2023-05-01T23:17:24.431Z,3.58
2023-05-01T23:19:54.801Z,4.25
2023-05-01T23:22:23.195Z,3.75
2023-05-01T23:24:51.733Z,4.05
2023-05-01T23:27:22.417Z,3.70
2023-05-01T23:29:55.124Z,3.65
2023-05-01T23:32:28.014Z,2.65
2023-05-01T23:35:15.747Z,3.65
2023-05-01T23:37:44.055Z,3.70
2023-05-01T23:40:12.961Z,3.97
2023-05-01T23:42:41.393Z,3.72
2023-05-01T23:45:10.526Z,3.35
2023-05-01T23:47:39.607Z,3.42
2023-05-01T23:50:10.709Z,3.45
2023-05-01T23:52:38.918Z,2.75
2023-05-01T23:55:07.761Z,3.28
2023-05-01T23:57:36.054Z,3.67
